Time;durP1;ratioP1;P1;durP2;ratioP2;P2;SDS_P1;SDS_P2;PMS_P1;PMS_P2;Temp;Humidity;BMP_temperature;BMP_pressure;BME280_temperature;BME280_humidity;BME280_pressure;Samples;Min_cycle;Max_cycle;Signal;HPM_P1;HPM_P2
2021/03/12 00:00:49;;;;;;;5.63;1.05;;;19.00;36.00;;;;;;5036173;28;20073;-65
2021/03/12 00:03:19;;;;;;;83.30;30.85;;;19.00;36.20;;;;;;5041608;28;20530;-65
2021/03/12 00:05:50;;;;;;;9.48;3.03;;;18.70;36.80;;;;;;5035399;28;20157;-65
2021/03/12 00:08:17;;;;;;;7.82;1.92;;;18.80;36.40;;;;;;5034961;28;20081;-64
2021/03/12 00:10:44;;;;;;;7.63;0.80;;;18.80;36.50;;;;;;5036949;28;20069;-65
2021/03/12 00:13:11;;;;;;;3.47;0.82;;;18.80;33.80;;;;;;5038233;28;20156;-59
2021/03/12 00:15:38;;;;;;;4.55;2.00;;;18.90;32.90;;;;;;5038491;28;20196;-63
2021/03/12 00:18:05;;;;;;;5.97;2.33;;;18.70;32.90;;;;;;5038298;28;20070;-62
2021/03/12 00:20:35;;;;;;;3.53;2.05;;;18.80;33.40;;;;;;5037137;28;20131;-64
2021/03/12 00:23:02;;;;;;;3.90;1.60;;;18.60;33.20;;;;;;5036427;28;20586;-60
2021/03/12 00:25:38;;;;;;;2.22;0.90;;;18.10;34.10;;;;;;5051786;28;20082;-64
2021/03/12 00:28:06;;;;;;;0.80;0.70;;;18.10;34.90;;;;;;5037486;28;20081;-64
2021/03/12 00:30:33;;;;;;;1.08;0.77;;;17.90;35.40;;;;;;5050108;28;20081;-62
2021/03/12 00:33:00;;;;;;;1.98;0.90;;;17.70;35.50;;;;;;5037529;28;20163;-63
2021/03/12 00:35:27;;;;;;;0.60;0.43;;;17.50;35.30;;;;;;5038477;28;20074;-64
2021/03/12 00:37:54;;;;;;;10.30;4.78;;;17.60;35.20;;;;;;5040720;28;20110;-63
2021/03/12 00:40:25;;;;;;;4.10;1.17;;;17.50;35.70;;;;;;5037963;28;20074;-63
2021/03/12 00:42:52;;;;;;;7.03;2.10;;;17.60;35.80;;;;;;5035767;28;20216;-62
2021/03/12 00:45:20;;;;;;;7.38;2.08;;;17.60;35.80;;;;;;5038422;28;20078;-65
2021/03/12 00:47:47;;;;;;;36.03;12.73;;;17.70;36.10;;;;;;5036388;28;20084;-64
2021/03/12 00:50:17;;;;;;;4.20;1.25;;;17.70;36.60;;;;;;5036177;28;20066;-63
2021/03/12 00:52:44;;;;;;;2.05;0.90;;;17.60;37.50;;;;;;5035013;28;20125;-63
2021/03/12 00:55:10;;;;;;;;;;;17.70;37.50;;;;;;5034399;28;20080;-63
2021/03/12 00:57:37;;;;;;;2.05;0.63;;;17.80;36.80;;;;;;5037273;28;19964;-64
2021/03/12 01:00:06;;;;;;;2.67;0.73;;;17.80;36.40;;;;;;5037128;28;20070;-63
2021/03/12 01:02:32;;;;;;;1.13;0.60;;;17.80;35.90;;;;;;5040073;28;20181;-65
2021/03/12 01:04:59;;;;;;;3.47;1.90;;;17.60;36.60;;;;;;5041841;28;20136;-63
2021/03/12 01:07:25;;;;;;;;;;;17.50;35.90;;;;;;5036879;28;20135;-63
2021/03/12 01:09:52;;;;;;;12.00;5.18;;;17.30;35.30;;;;;;5036057;28;20011;-62
2021/03/12 01:12:18;;;;;;;;;;;17.20;35.50;;;;;;5037482;28;20154;-63
2021/03/12 01:14:44;;;;;;;17.48;6.43;;;16.90;34.90;;;;;;5037574;28;19957;-63
2021/03/12 01:17:10;;;;;;;;;;;17.00;35.00;;;;;;5035375;28;20078;-63
2021/03/12 01:19:37;;;;;;;1.90;0.80;;;16.90;34.80;;;;;;5037319;28;19958;-62
2021/03/12 01:22:03;;;;;;;;;;;16.90;34.90;;;;;;5038790;28;20085;-62
2021/03/12 01:24:30;;;;;;;24.70;5.63;;;16.90;34.70;;;;;;5054166;28;20056;-62
2021/03/12 01:26:58;;;;;;;;;;;16.70;34.90;;;;;;5035793;28;20086;-64
2021/03/12 01:29:25;;;;;;;6.30;0.90;;;16.70;35.10;;;;;;5035957;28;19968;-63
2021/03/12 01:31:52;;;;;;;2.30;0.70;;;16.70;35.00;;;;;;5040455;28;20443;-64
2021/03/12 01:34:19;;;;;;;1.63;0.90;;;16.70;35.00;;;;;;5035727;28;20121;-64
2021/03/12 01:36:46;;;;;;;5.82;0.98;;;16.70;34.90;;;;;;5035000;28;20074;-63
2021/03/12 01:39:12;;;;;;;;;;;16.70;35.00;;;;;;5036138;28;20066;-65
2021/03/12 01:41:38;;;;;;;2.08;0.73;;;16.60;35.00;;;;;;5038340;28;20041;-62
2021/03/12 01:44:05;;;;;;;;;;;16.60;35.30;;;;;;5038072;28;20072;-66
2021/03/12 01:46:34;;;;;;;4.90;0.93;;;16.50;35.40;;;;;;5038636;28;19957;-62
2021/03/12 01:49:01;;;;;;;5.18;1.00;;;16.40;35.50;;;;;;5038649;28;20073;-64
2021/03/12 01:51:27;;;;;;;;;;;16.20;35.40;;;;;;5038832;28;20066;-66
2021/03/12 01:53:54;;;;;;;3.60;0.95;;;16.20;35.90;;;;;;5040296;28;20439;-66
2021/03/12 01:56:20;;;;;;;3.67;1.00;;;16.20;35.90;;;;;;5037083;28;20082;-63
2021/03/12 01:58:47;;;;;;;6.57;1.83;;;16.20;35.90;;;;;;5038905;28;20081;-64
2021/03/12 02:01:15;;;;;;;8.15;1.70;;;16.10;36.00;;;;;;5041038;28;20119;-66
2021/03/12 02:03:41;;;;;;;6.03;1.05;;;16.10;37.90;;;;;;5037990;28;20101;-65
2021/03/12 02:06:08;;;;;;;8.52;1.10;;;16.00;41.10;;;;;;5039255;28;20062;-64
2021/03/12 02:08:35;;;;;;;6.55;1.20;;;15.90;42.40;;;;;;5017884;28;20135;-64
2021/03/12 02:11:02;;;;;;;3.10;0.98;;;15.80;43.10;;;;;;5034330;28;20086;-63
2021/03/12 02:13:51;;;;;;;3.78;0.95;;;15.70;43.60;;;;;;5033350;28;20156;-63
2021/03/12 02:16:45;;;;;;;5.45;1.00;;;15.70;44.00;;;;;;5055292;28;20088;-64
2021/03/12 02:19:53;;;;;;;4.75;1.52;;;15.60;44.30;;;;;;5033743;28;20092;-64
2021/03/12 02:22:21;;;;;;;2.47;1.00;;;15.50;44.60;;;;;;5023930;28;20216;-64
2021/03/12 02:24:57;;;;;;;3.85;1.13;;;15.50;44.70;;;;;;5041104;28;20109;-63
2021/03/12 02:27:25;;;;;;;4.72;1.38;;;15.40;44.60;;;;;;5037277;28;20072;-61
2021/03/12 02:29:55;;;;;;;7.15;1.35;;;15.40;44.90;;;;;;5039188;28;20119;-63
2021/03/12 02:32:46;;;;;;;5.45;1.80;;;15.40;45.00;;;;;;5034592;28;20073;-64
2021/03/12 02:35:16;;;;;;;11.00;1.60;;;15.40;45.40;;;;;;5036938;28;20539;-64
2021/03/12 02:37:43;;;;;;;6.75;1.83;;;15.30;45.50;;;;;;5037983;28;20571;-64
2021/03/12 02:40:11;;;;;;;10.65;2.20;;;15.30;45.50;;;;;;5038992;28;20190;-64
2021/03/12 02:42:40;;;;;;;7.53;2.88;;;15.30;45.20;;;;;;5041332;28;20497;-64
2021/03/12 02:45:12;;;;;;;9.07;2.17;;;15.30;45.40;;;;;;5034379;28;20066;-65
2021/03/12 02:47:39;;;;;;;9.18;3.05;;;15.20;45.70;;;;;;5036750;28;20127;-66
2021/03/12 02:50:08;;;;;;;6.05;2.90;;;15.10;45.60;;;;;;5037562;28;20081;-65
2021/03/12 02:52:36;;;;;;;8.05;2.80;;;15.10;45.80;;;;;;5037758;28;20248;-66
2021/03/12 02:55:05;;;;;;;8.63;2.35;;;15.00;45.90;;;;;;5038043;28;20069;-64
2021/03/12 02:57:32;;;;;;;8.57;2.42;;;15.00;46.10;;;;;;5043395;28;20084;-65
2021/03/12 02:59:59;;;;;;;10.43;2.33;;;14.90;46.40;;;;;;5035624;28;20100;-65
2021/03/12 03:02:28;;;;;;;8.10;2.20;;;14.90;46.70;;;;;;5036145;28;20196;-64
2021/03/12 03:04:57;;;;;;;14.82;1.80;;;14.90;46.60;;;;;;5038032;28;20070;-64
2021/03/12 03:07:25;;;;;;;9.48;1.63;;;14.80;47.30;;;;;;5034149;28;20082;-64
2021/03/12 03:09:53;;;;;;;9.65;2.33;;;14.80;46.50;;;;;;5043134;28;20143;-64
2021/03/12 03:12:25;;;;;;;5.53;2.13;;;14.80;46.80;;;;;;5041277;28;20074;-64
2021/03/12 03:15:05;;;;;;;7.47;1.70;;;14.70;47.00;;;;;;5039722;28;20089;-63
2021/03/12 03:17:35;;;;;;;14.93;1.88;;;14.60;46.80;;;;;;5040949;28;20449;-65
2021/03/12 03:20:09;;;;;;;9.32;1.20;;;14.60;47.20;;;;;;5037059;28;20108;-63
2021/03/12 03:22:36;;;;;;;6.10;1.50;;;14.50;47.20;;;;;;5037653;28;20116;-63
2021/03/12 03:25:05;;;;;;;5.55;1.98;;;14.50;47.50;;;;;;5035699;28;20469;-64
2021/03/12 03:27:32;;;;;;;9.57;1.85;;;14.50;47.50;;;;;;5035706;28;20530;-63
2021/03/12 03:29:59;;;;;;;10.80;2.22;;;14.50;47.90;;;;;;5038439;28;20078;-62
2021/03/12 03:32:25;;;;;;;13.05;2.05;;;14.50;47.80;;;;;;5034583;28;20505;-64
2021/03/12 03:34:51;;;;;;;;;;;14.40;47.90;;;;;;5032255;28;21537;-63
2021/03/12 03:37:18;;;;;;;9.73;2.38;;;14.40;47.90;;;;;;5033508;28;19961;-63
2021/03/12 03:39:44;;;;;;;;;;;14.30;48.00;;;;;;5036402;28;20502;-64
2021/03/12 03:42:13;;;;;;;10.30;2.00;;;14.30;48.10;;;;;;5037825;28;19992;-65
2021/03/12 03:44:41;;;;;;;8.50;2.45;;;14.40;48.10;;;;;;5034623;28;20070;-65
2021/03/12 03:47:09;;;;;;;12.20;2.10;;;14.30;48.00;;;;;;5036323;28;20089;-63
2021/03/12 03:49:38;;;;;;;7.03;2.10;;;14.30;47.60;;;;;;5031453;28;20106;-64
2021/03/12 03:52:07;;;;;;;9.27;2.92;;;14.40;47.90;;;;;;5036882;28;20074;-63
2021/03/12 03:54:36;;;;;;;11.95;2.47;;;14.30;47.00;;;;;;5037872;28;20192;-63
2021/03/12 03:57:05;;;;;;;9.88;3.08;;;14.30;47.40;;;;;;5050864;28;20768;-64
2021/03/12 03:59:33;;;;;;;9.25;3.50;;;14.30;47.10;;;;;;5051161;28;20066;-65
2021/03/12 04:02:01;;;;;;;11.05;3.22;;;14.30;46.90;;;;;;5032563;28;20156;-64
2021/03/12 04:04:28;;;;;;;8.98;2.85;;;14.20;46.90;;;;;;5034326;28;20078;-66
2021/03/12 04:06:55;;;;;;;10.35;2.55;;;14.20;47.10;;;;;;5038806;28;20080;-64
2021/03/12 04:09:24;;;;;;;11.30;3.28;;;14.20;47.10;;;;;;5016804;28;20082;-65
2021/03/12 04:11:52;;;;;;;8.65;3.35;;;14.30;46.80;;;;;;5033828;28;20067;-65
2021/03/12 04:14:18;;;;;;;13.02;3.95;;;14.20;46.60;;;;;;5033486;28;20099;-64
2021/03/12 04:16:45;;;;;;;12.57;4.65;;;14.10;46.60;;;;;;5048366;28;20523;-64
2021/03/12 04:19:11;;;;;;;;;;;14.10;46.80;;;;;;5029868;28;20141;-63
2021/03/12 04:21:39;;;;;;;17.23;4.72;;;14.00;47.00;;;;;;5034722;28;19981;-65
2021/03/12 04:24:06;;;;;;;14.68;6.80;;;13.90;46.70;;;;;;5036583;28;20100;-65
2021/03/12 04:26:33;;;;;;;25.95;8.85;;;14.00;46.80;;;;;;5034633;28;20494;-65
2021/03/12 04:29:01;;;;;;;16.92;7.32;;;13.90;46.70;;;;;;5035093;28;20073;-65
2021/03/12 04:31:28;;;;;;;17.55;8.35;;;13.90;46.60;;;;;;5033489;28;20482;-65
2021/03/12 04:33:55;;;;;;;15.52;8.77;;;13.80;46.70;;;;;;5030189;28;20082;-64
2021/03/12 04:36:22;;;;;;;18.10;8.10;;;13.70;47.00;;;;;;5029881;28;20078;-64
2021/03/12 04:38:49;;;;;;;15.35;4.75;;;13.70;47.20;;;;;;5032757;28;20128;-63
2021/03/12 04:41:17;;;;;;;8.13;3.53;;;13.80;47.00;;;;;;5035381;28;20561;-63
2021/03/12 04:43:44;;;;;;;10.60;3.75;;;13.80;47.10;;;;;;5034322;28;20086;-65
2021/03/12 04:46:15;;;;;;;14.20;2.65;;;13.80;47.20;;;;;;5036509;28;20081;-64
2021/03/12 04:48:42;;;;;;;10.20;2.33;;;13.80;47.00;;;;;;5035106;28;20074;-64
2021/03/12 04:51:10;;;;;;;10.35;2.40;;;13.80;46.90;;;;;;5034408;28;20081;-64
2021/03/12 04:53:39;;;;;;;5.25;2.28;;;13.80;46.80;;;;;;5033271;28;20129;-65
2021/03/12 04:56:07;;;;;;;8.13;2.28;;;13.80;47.10;;;;;;5033725;28;20074;-65
2021/03/12 04:58:36;;;;;;;7.25;2.72;;;13.70;46.80;;;;;;5036246;28;20084;-67
2021/03/12 05:01:09;;;;;;;22.20;4.40;;;13.70;47.20;;;;;;5037201;28;20073;-65
2021/03/12 05:03:38;;;;;;;12.70;3.97;;;13.70;47.50;;;;;;5030578;28;20101;-63
2021/03/12 05:06:06;;;;;;;13.18;3.55;;;13.70;47.40;;;;;;5036757;28;20070;-67
2021/03/12 05:08:36;;;;;;;14.15;4.43;;;13.70;48.20;;;;;;5040247;28;20088;-67
2021/03/12 05:11:06;;;;;;;11.25;3.80;;;13.70;48.30;;;;;;5035521;28;20131;-66
2021/03/12 05:13:32;;;;;;;10.35;3.80;;;13.70;48.30;;;;;;5033523;28;20100;-66
2021/03/12 05:15:59;;;;;;;10.05;2.78;;;13.60;48.20;;;;;;5036600;28;20127;-63
2021/03/12 05:18:28;;;;;;;10.00;2.83;;;13.60;47.90;;;;;;5038293;28;20109;-66
2021/03/12 05:20:55;;;;;;;15.60;2.70;;;13.50;48.10;;;;;;5040795;28;20074;-66
2021/03/12 05:23:23;;;;;;;10.02;2.83;;;13.50;48.30;;;;;;5058333;28;20120;-66
2021/03/12 05:25:50;;;;;;;7.85;2.42;;;13.50;48.20;;;;;;5039726;28;20433;-66
2021/03/12 05:28:17;;;;;;;12.77;2.40;;;13.40;47.00;;;;;;5041508;28;20160;-66
2021/03/12 05:30:44;;;;;;;15.63;3.35;;;13.30;47.60;;;;;;5040831;28;20537;-66
2021/03/12 05:33:11;;;;;;;17.23;5.85;;;13.40;47.70;;;;;;5037715;28;20104;-66
2021/03/12 05:35:37;;;;;;;15.73;2.67;;;13.30;46.70;;;;;;5041123;28;20379;-65
2021/03/12 05:38:04;;;;;;;11.23;2.67;;;13.30;46.80;;;;;;5037373;28;20097;-65
2021/03/12 05:40:31;;;;;;;13.70;2.80;;;13.30;46.90;;;;;;5042443;28;20066;-65
2021/03/12 05:42:59;;;;;;;12.00;2.85;;;13.30;47.60;;;;;;5041385;28;20101;-65
2021/03/12 05:45:26;;;;;;;15.65;2.80;;;13.30;48.00;;;;;;5041437;22;20463;-66
2021/03/12 05:47:53;;;;;;;18.42;4.68;;;13.30;48.20;;;;;;5029598;28;20074;-66
2021/03/12 05:50:21;;;;;;;7.72;2.40;;;13.30;48.00;;;;;;5045129;28;20176;-66
2021/03/12 05:52:48;;;;;;;9.55;2.53;;;13.30;47.70;;;;;;5025356;28;20129;-65
2021/03/12 05:55:19;;;;;;;10.27;2.88;;;13.20;47.60;;;;;;5027658;28;20097;-66
2021/03/12 05:57:49;;;;;;;8.52;2.50;;;13.10;47.80;;;;;;5028006;28;20479;-65
2021/03/12 06:00:17;;;;;;;4.75;2.10;;;13.00;47.70;;;;;;5042766;28;20523;-65
2021/03/12 06:02:43;;;;;;;6.03;2.53;;;13.00;48.00;;;;;;5030538;28;20133;-67
2021/03/12 06:05:11;;;;;;;9.35;2.75;;;12.90;48.30;;;;;;5027747;28;20077;-65
2021/03/12 06:07:39;;;;;;;9.10;2.30;;;12.90;48.80;;;;;;5023309;28;20551;-65
2021/03/12 06:10:07;;;;;;;7.35;2.25;;;12.70;49.30;;;;;;5026989;28;20092;-65
2021/03/12 06:12:34;;;;;;;7.22;2.15;;;12.70;49.80;;;;;;5029871;28;20101;-67
2021/03/12 06:15:01;;;;;;;;;;;12.70;50.30;;;;;;5042822;28;20095;-65
2021/03/12 06:17:33;;;;;;;8.70;2.00;;;12.80;50.50;;;;;;5025738;28;19958;-66
2021/03/12 06:20:02;;;;;;;4.28;1.88;;;12.80;50.50;;;;;;5024066;28;20160;-67
2021/03/12 06:22:29;;;;;;;9.80;1.73;;;12.70;50.60;;;;;;5020408;28;20093;-66
2021/03/12 06:25:14;;;;;;;10.10;2.55;;;12.80;50.80;;;;;;5042858;28;20473;-67
2021/03/12 06:27:41;;;;;;;7.05;1.60;;;12.70;51.10;;;;;;5037434;28;20105;-65
2021/03/12 06:30:10;;;;;;;4.85;1.60;;;12.70;51.20;;;;;;5029021;28;20070;-65
2021/03/12 06:32:50;;;;;;;6.50;1.30;;;12.70;51.20;;;;;;5025264;28;20621;-65
2021/03/12 06:35:19;;;;;;;5.07;1.92;;;12.70;51.30;;;;;;5025352;28;20104;-65
2021/03/12 06:37:47;;;;;;;7.95;2.55;;;12.70;51.20;;;;;;5023343;28;20070;-66
2021/03/12 06:40:25;;;;;;;7.15;1.80;;;12.70;51.30;;;;;;5028930;28;20074;-66
2021/03/12 06:43:21;;;;;;;3.60;1.30;;;12.60;51.20;;;;;;5027156;28;20132;-66
2021/03/12 06:45:51;;;;;;;3.50;1.27;;;12.60;51.20;;;;;;5028722;28;20114;-66
2021/03/12 06:48:18;;;;;;;6.95;1.42;;;12.60;51.60;;;;;;5028483;28;20074;-66
2021/03/12 06:50:53;;;;;;;5.50;1.38;;;12.60;51.00;;;;;;5024819;28;20066;-66
2021/03/12 06:53:23;;;;;;;5.55;1.65;;;12.60;50.80;;;;;;5024723;28;20093;-66
2021/03/12 06:55:53;;;;;;;6.35;1.88;;;13.00;69.00;;;;;;5041708;28;20070;-66
2021/03/12 06:58:20;;;;;;;3.80;1.40;;;12.70;50.60;;;;;;5026561;28;20112;-65
2021/03/12 07:00:48;;;;;;;6.70;1.48;;;12.80;50.90;;;;;;5024638;28;20124;-66
2021/03/12 07:03:25;;;;;;;5.22;1.42;;;12.70;51.00;;;;;;5028636;28;20099;-65
2021/03/12 07:06:03;;;;;;;11.50;2.40;;;12.80;51.20;;;;;;5029033;28;20093;-65
2021/03/12 07:08:41;;;;;;;4.18;1.63;;;12.70;51.60;;;;;;5026418;28;20131;-65
2021/03/12 07:11:27;;;;;;;6.43;2.10;;;12.60;52.00;;;;;;5029928;28;20580;-65
2021/03/12 07:13:58;;;;;;;4.57;1.65;;;12.60;52.20;;;;;;5026842;28;20106;-65
2021/03/12 07:16:26;;;;;;;5.80;1.50;;;12.60;52.20;;;;;;5027099;28;20140;-66
2021/03/12 07:18:54;;;;;;;5.53;1.70;;;12.50;52.40;;;;;;5026759;28;20163;-65
2021/03/12 07:21:23;;;;;;;6.07;1.45;;;12.40;52.80;;;;;;5021825;28;20087;-65
2021/03/12 07:23:57;;;;;;;5.93;1.77;;;12.50;52.60;;;;;;5023785;28;20184;-65
2021/03/12 07:26:24;;;;;;;4.07;1.30;;;12.40;52.20;;;;;;5026601;28;20070;-65
2021/03/12 07:28:59;;;;;;;4.68;1.50;;;12.50;52.10;;;;;;5027029;28;20077;-64
2021/03/12 07:31:35;;;;;;;4.30;1.70;;;12.40;52.20;;;;;;5022939;28;20519;-64
2021/03/12 07:34:11;;;;;;;4.15;1.10;;;12.40;52.20;;;;;;5024288;28;20073;-63
2021/03/12 07:36:45;;;;;;;4.03;1.92;;;12.50;52.20;;;;;;5023512;28;20066;-66
2021/03/12 07:39:20;;;;;;;5.00;1.90;;;12.40;52.20;;;;;;5038483;28;20081;-65
2021/03/12 07:41:48;;;;;;;7.32;1.60;;;12.40;52.30;;;;;;5021749;28;20101;-64
2021/03/12 07:44:16;;;;;;;8.88;1.65;;;12.40;52.30;;;;;;5022011;28;20078;-64
2021/03/12 07:46:48;;;;;;;5.88;1.55;;;12.40;52.50;;;;;;5021688;28;20202;-64
2021/03/12 07:49:32;;;;;;;5.22;1.48;;;12.40;52.60;;;;;;5021428;28;20071;-65
2021/03/12 07:52:00;;;;;;;6.90;1.45;;;12.40;52.60;;;;;;5020152;28;20074;-64
2021/03/12 07:54:36;;;;;;;7.88;1.52;;;12.50;52.80;;;;;;5021144;28;20078;-65
2021/03/12 07:57:04;;;;;;;4.68;1.33;;;12.40;52.60;;;;;;5020519;28;20121;-66
2021/03/12 07:59:49;;;;;;;4.63;1.80;;;12.40;52.70;;;;;;5021989;28;20514;-66
2021/03/12 08:02:16;;;;;;;4.22;1.60;;;12.40;52.80;;;;;;5024753;28;20190;-65
2021/03/12 08:04:45;;;;;;;7.07;1.75;;;12.30;52.90;;;;;;5021409;28;20101;-65
2021/03/12 08:07:18;;;;;;;3.60;1.80;;;12.40;52.80;;;;;;5022853;28;20531;-65
2021/03/12 08:09:49;;;;;;;3.92;1.20;;;12.30;52.80;;;;;;5024183;28;20074;-63
2021/03/12 08:12:38;;;;;;;3.00;1.58;;;12.30;52.70;;;;;;5037450;28;20748;-65
2021/03/12 08:15:21;;;;;;;3.75;1.60;;;12.30;53.20;;;;;;5022741;28;20070;-66
2021/03/12 08:17:56;;;;;;;8.57;1.80;;;12.30;52.20;;;;;;5023354;28;20527;-66
2021/03/12 08:20:32;;;;;;;5.60;1.80;;;12.40;52.20;;;;;;5036950;28;20561;-66
2021/03/12 08:22:59;;;;;;;5.03;1.75;;;12.40;51.40;;;;;;5019576;28;20096;-66
2021/03/12 08:25:32;;;;;;;5.00;1.88;;;12.50;50.80;;;;;;5019747;28;20220;-66
2021/03/12 08:28:23;;;;;;;4.40;1.60;;;12.50;50.80;;;;;;5020688;28;20131;-65
2021/03/12 08:30:55;;;;;;;3.30;1.48;;;12.50;50.20;;;;;;5020031;28;20089;-63
2021/03/12 08:33:21;;;;;;;5.45;1.30;;;12.50;50.10;;;;;;5037146;28;20169;-64
2021/03/12 08:35:50;;;;;;;3.53;1.30;;;12.50;50.00;;;;;;5022906;28;20526;-65
2021/03/12 08:38:36;;;;;;;3.83;0.95;;;12.50;50.30;;;;;;5022181;28;20101;-64
2021/03/12 08:41:12;;;;;;;5.07;1.30;;;12.50;50.60;;;;;;5021284;28;20071;-64
2021/03/12 08:43:57;;;;;;;1.70;0.90;;;12.50;50.80;;;;;;5020911;28;20105;-65
2021/03/12 08:46:28;;;;;;;6.10;1.17;;;12.50;51.00;;;;;;5021188;28;20117;-65
2021/03/12 08:48:57;;;;;;;2.42;0.90;;;12.40;51.20;;;;;;5022391;28;20128;-65
2021/03/12 08:51:28;;;;;;;2.35;0.73;;;12.40;51.40;;;;;;5036239;28;21519;-61
2021/03/12 08:53:58;;;;;;;5.38;0.90;;;12.40;51.50;;;;;;5020925;28;20081;-64
2021/03/12 08:56:33;;;;;;;3.45;1.10;;;12.40;51.50;;;;;;5019520;28;20081;-65
2021/03/12 08:59:00;;;;;;;2.85;1.10;;;12.40;51.80;;;;;;5020933;28;20069;-64
2021/03/12 09:01:32;;;;;;;2.60;1.00;;;12.30;52.40;;;;;;5025741;28;20109;-65
2021/03/12 09:04:00;;;;;;;5.10;0.85;;;12.30;51.90;;;;;;5023251;28;20511;-64
2021/03/12 09:06:33;;;;;;;5.78;1.17;;;12.30;52.10;;;;;;5025253;28;20066;-65
2021/03/12 09:09:00;;;;;;;5.50;1.40;;;12.30;52.00;;;;;;5023774;28;20186;-65
2021/03/12 09:11:27;;;;;;;4.05;1.15;;;12.10;52.10;;;;;;5024391;28;20089;-64
2021/03/12 09:13:57;;;;;;;3.55;0.82;;;12.10;52.20;;;;;;5024927;28;20077;-65
2021/03/12 09:16:26;;;;;;;2.42;0.80;;;12.10;52.30;;;;;;5023179;28;20070;-66
2021/03/12 09:18:54;;;;;;;7.72;1.10;;;12.10;52.40;;;;;;5024097;28;20077;-64
2021/03/12 09:21:23;;;;;;;5.88;1.33;;;12.00;52.50;;;;;;5024675;28;20066;-64
2021/03/12 09:23:57;;;;;;;2.17;0.98;;;11.90;52.80;;;;;;5039034;28;20140;-64
2021/03/12 09:26:24;;;;;;;2.63;1.17;;;11.90;53.00;;;;;;5021474;28;20077;-65
2021/03/12 09:28:54;;;;;;;2.45;0.90;;;11.90;53.10;;;;;;5021855;28;20089;-65
2021/03/12 09:31:31;;;;;;;5.22;1.30;;;11.90;52.90;;;;;;5021710;28;20113;-64
2021/03/12 09:34:00;;;;;;;5.68;1.30;;;11.90;53.20;;;;;;5025429;28;20115;-65
2021/03/12 09:36:32;;;;;;;3.65;1.15;;;11.80;53.20;;;;;;5022750;28;20074;-65
2021/03/12 09:39:19;;;;;;;6.93;1.38;;;11.80;53.20;;;;;;5023431;28;20082;-65
2021/03/12 09:41:56;;;;;;;4.38;1.00;;;11.80;53.20;;;;;;5024862;28;20067;-65
2021/03/12 09:44:24;;;;;;;6.70;1.90;;;11.80;53.20;;;;;;5023394;28;20066;-63
2021/03/12 09:46:54;;;;;;;4.18;2.08;;;11.60;53.50;;;;;;5025502;28;20459;-65
2021/03/12 09:49:24;;;;;;;9.57;2.00;;;11.60;53.70;;;;;;5039692;28;20172;-63
2021/03/12 09:51:55;;;;;;;7.25;1.50;;;11.60;53.80;;;;;;5025311;28;20074;-64
2021/03/12 09:54:24;;;;;;;5.07;1.20;;;11.70;53.80;;;;;;5023748;28;20070;-65
2021/03/12 09:56:54;;;;;;;2.38;0.95;;;11.70;53.50;;;;;;5024206;28;20071;-63
2021/03/12 09:59:25;;;;;;;2.22;1.13;;;11.70;53.40;;;;;;5024238;28;20502;-64
2021/03/12 10:01:53;;;;;;;3.70;1.05;;;11.70;53.40;;;;;;5023523;28;20117;-64
2021/03/12 10:04:29;;;;;;;3.60;1.15;;;11.60;53.40;;;;;;5028885;28;20603;-64
2021/03/12 10:07:16;;;;;;;3.08;1.20;;;11.60;53.30;;;;;;5027672;28;20387;-64
2021/03/12 10:09:47;;;;;;;3.17;1.60;;;11.60;53.30;;;;;;5029257;28;20138;-65
2021/03/12 10:12:22;;;;;;;3.30;1.50;;;11.60;53.30;;;;;;5029023;28;20153;-65
2021/03/12 10:14:54;;;;;;;2.72;1.35;;;11.60;53.10;;;;;;5029376;28;20546;-66
2021/03/12 10:17:22;;;;;;;4.03;1.30;;;11.60;53.00;;;;;;5026205;28;20077;-65
2021/03/12 10:19:56;;;;;;;4.07;1.40;;;11.60;52.60;;;;;;5027235;28;20218;-65
2021/03/12 10:22:37;;;;;;;3.33;1.23;;;11.60;52.60;;;;;;5029175;28;20125;-65
2021/03/12 10:25:18;;;;;;;3.88;1.02;;;11.60;52.60;;;;;;5028179;28;20165;-64
2021/03/12 10:27:51;;;;;;;3.90;0.90;;;11.60;52.70;;;;;;5027348;28;21677;-65
2021/03/12 10:30:21;;;;;;;1.98;0.95;;;11.70;52.60;;;;;;5041681;28;20086;-65
2021/03/12 10:32:54;;;;;;;1.05;0.50;;;11.70;52.70;;;;;;5025776;28;20454;-65
2021/03/12 10:35:31;;;;;;;1.55;0.60;;;11.60;52.70;;;;;;5025030;28;20100;-65
2021/03/12 10:37:59;;;;;;;1.85;0.63;;;11.60;52.90;;;;;;5022177;28;20076;-63
2021/03/12 10:40:27;;;;;;;1.50;0.70;;;11.50;53.00;;;;;;5029677;28;20073;-62
2021/03/12 10:42:54;;;;;;;5.55;0.73;;;11.60;53.00;;;;;;5026811;28;20102;-63
2021/03/12 10:45:27;;;;;;;0.57;0.45;;;11.60;51.30;;;;;;5025656;28;20606;-64
2021/03/12 10:48:04;;;;;;;1.27;0.70;;;11.60;51.80;;;;;;5026897;28;20136;-64
2021/03/12 10:50:34;;;;;;;3.58;0.70;;;11.60;52.20;;;;;;5023540;28;20078;-64
2021/03/12 10:53:09;;;;;;;4.10;0.70;;;11.50;52.10;;;;;;5030540;28;21573;-63
2021/03/12 10:55:38;;;;;;;3.67;0.90;;;11.50;52.70;;;;;;5027197;28;20139;-64
2021/03/12 10:58:05;;;;;;;4.93;1.00;;;11.50;53.00;;;;;;5026899;28;20101;-63
2021/03/12 11:00:31;;;;;;;;;;;11.40;53.00;;;;;;5046123;28;20526;-64
2021/03/12 11:03:03;;;;;;;2.70;0.90;;;11.40;53.40;;;;;;5028252;28;20031;-64
2021/03/12 11:05:30;;;;;;;1.90;1.10;;;11.50;58.10;;;;;;5024535;28;20384;-63
2021/03/12 11:07:57;;;;;;;3.72;0.80;;;11.40;53.40;;;;;;5028389;28;20120;-64
2021/03/12 11:10:24;;;;;;;4.30;1.70;;;11.30;53.50;;;;;;5027607;28;20078;-64
2021/03/12 11:12:52;;;;;;;5.20;2.20;;;11.30;53.40;;;;;;5024098;28;20074;-64
2021/03/12 11:15:21;;;;;;;8.73;2.38;;;11.40;53.40;;;;;;5022230;28;20136;-64
2021/03/12 11:17:48;;;;;;;6.90;2.70;;;11.30;70.60;;;;;;5028198;28;20089;-64
2021/03/12 11:20:21;;;;;;;2.80;1.70;;;11.30;53.40;;;;;;5026565;28;20070;-64
2021/03/12 11:22:49;;;;;;;3.80;1.10;;;11.30;53.50;;;;;;5028671;28;20180;-64
2021/03/12 11:25:17;;;;;;;4.60;1.15;;;11.30;53.40;;;;;;5025167;28;20065;-64
2021/03/12 11:27:44;;;;;;;1.45;0.93;;;11.30;53.70;;;;;;5026177;28;20073;-64
2021/03/12 11:30:15;;;;;;;4.72;0.90;;;11.30;53.80;;;;;;5042829;28;20545;-64
2021/03/12 11:32:42;;;;;;;2.80;0.80;;;11.30;53.80;;;;;;5026391;28;20081;-65
2021/03/12 11:35:10;;;;;;;1.13;0.60;;;11.20;54.30;;;;;;5027367;28;20073;-64
2021/03/12 11:37:36;;;;;;;8.00;0.77;;;11.20;54.00;;;;;;5025116;28;20082;-65
2021/03/12 11:40:04;;;;;;;;;;;11.20;54.10;;;;;;5024434;28;20523;-64
2021/03/12 11:42:30;;;;;;;4.63;1.15;;;11.10;55.80;;;;;;5026149;28;19985;-64
2021/03/12 11:44:58;;;;;;;6.18;0.93;;;11.10;54.60;;;;;;5025964;28;20081;-65
2021/03/12 11:47:25;;;;;;;2.78;0.90;;;11.10;54.70;;;;;;5026289;28;20070;-64
2021/03/12 11:49:52;;;;;;;1.63;0.80;;;11.00;54.90;;;;;;5027926;28;20086;-64
2021/03/12 11:52:23;;;;;;;;;;;11.00;55.10;;;;;;5025844;28;20086;-64
2021/03/12 11:54:49;;;;;;;8.13;0.90;;;10.80;56.50;;;;;;5027725;28;20007;-65
2021/03/12 11:57:16;;;;;;;2.63;0.90;;;10.80;55.60;;;;;;5040990;28;20084;-65
2021/03/12 11:59:42;;;;;;;;;;;10.90;55.60;;;;;;5028964;28;20081;-65
2021/03/12 12:02:10;;;;;;;2.65;0.73;;;10.80;55.60;;;;;;5024655;28;20418;-64
2021/03/12 12:04:37;;;;;;;4.35;0.90;;;10.80;55.90;;;;;;5039923;28;20106;-64
2021/03/12 12:07:04;;;;;;;1.77;0.80;;;10.80;55.80;;;;;;5026064;28;20527;-64
2021/03/12 12:09:31;;;;;;;3.95;1.00;;;10.80;55.70;;;;;;5025468;28;20085;-65
2021/03/12 12:11:58;;;;;;;3.90;1.02;;;10.90;55.80;;;;;;5024125;28;20070;-64
2021/03/12 12:14:24;;;;;;;;;;;10.80;55.50;;;;;;5023424;28;20228;-65
2021/03/12 12:16:51;;;;;;;5.03;1.17;;;10.80;55.60;;;;;;5026452;28;19958;-64
2021/03/12 12:19:18;;;;;;;;;;;10.80;55.90;;;;;;5027159;28;20519;-67
2021/03/12 12:21:45;;;;;;;1.90;0.80;;;10.70;55.90;;;;;;5024218;28;19965;-64
2021/03/12 12:24:12;;;;;;;2.55;0.90;;;10.60;55.90;;;;;;5023697;28;20106;-64
2021/03/12 12:26:39;;;;;;;6.53;1.20;;;10.60;56.20;;;;;;5025795;28;20066;-64
2021/03/12 12:29:05;;;;;;;1.90;0.80;;;10.60;56.20;;;;;;5029337;28;20078;-64
2021/03/12 12:31:36;;;;;;;5.15;0.70;;;10.60;56.30;;;;;;5025426;28;20086;-64
2021/03/12 12:34:04;;;;;;;3.83;0.85;;;10.60;56.30;;;;;;5024652;28;20071;-64
2021/03/12 12:36:32;;;;;;;5.45;0.85;;;10.70;56.40;;;;;;5024668;28;20157;-64
2021/03/12 12:39:00;;;;;;;2.65;0.80;;;10.70;56.20;;;;;;5024488;28;20095;-64
2021/03/12 12:41:27;;;;;;;3.60;0.88;;;10.80;56.10;;;;;;5026176;28;20082;-64
2021/03/12 12:43:54;;;;;;;3.25;0.98;;;10.80;56.10;;;;;;5021962;28;20571;-64
2021/03/12 12:46:20;;;;;;;6.95;1.45;;;10.80;56.00;;;;;;5024243;28;20570;-64
2021/03/12 12:48:48;;;;;;;4.85;1.40;;;10.80;56.70;;;;;;5026884;28;20088;-64
2021/03/12 12:51:14;;;;;;;2.13;1.10;;;10.80;56.70;;;;;;5025225;28;20066;-64
2021/03/12 12:53:41;;;;;;;9.50;1.58;;;10.70;57.00;;;;;;5025903;28;20076;-64
2021/03/12 12:56:08;;;;;;;4.03;1.45;;;10.70;65.80;;;;;;5025231;28;20137;-64
2021/03/12 12:58:35;;;;;;;5.97;1.50;;;10.70;57.80;;;;;;5022154;28;20085;-64
2021/03/12 13:01:01;;;;;;;4.68;1.30;;;10.60;57.50;;;;;;5042353;28;20070;-63
2021/03/12 13:03:28;;;;;;;3.08;1.20;;;10.60;57.50;;;;;;5026341;28;20098;-64